sensor_id;sensor_type;location;lat;lon;timestamp;pressure;altitude;pressure_sealevel;temperature;humidity
41250;BME280;26984;59.928;30.306;2022-11-15T00:01:50;101687.03;;;4.01;100.00
41250;BME280;26984;59.928;30.306;2022-11-15T00:04:36;101669.28;;;3.92;100.00
41250;BME280;26984;59.928;30.306;2022-11-15T00:07:23;101671.50;;;3.96;100.00
41250;BME280;26984;59.928;30.306;2022-11-15T00:10:09;101661.13;;;3.93;100.00
41250;BME280;26984;59.928;30.306;2022-11-15T00:12:55;101659.59;;;3.91;100.00
41250;BME280;26984;59.928;30.306;2022-11-15T00:15:42;101665.38;;;3.86;100.00
41250;BME280;26984;59.928;30.306;2022-11-15T00:18:30;101648.53;;;3.86;100.00
41250;BME280;26984;59.928;30.306;2022-11-15T00:21:16;101642.22;;;3.87;100.00
41250;BME280;26984;59.928;30.306;2022-11-15T00:24:03;101638.00;;;3.84;100.00
41250;BME280;26984;59.928;30.306;2022-11-15T00:26:49;101623.59;;;3.77;100.00
41250;BME280;26984;59.928;30.306;2022-11-15T00:29:35;101622.00;;;3.84;100.00
41250;BME280;26984;59.928;30.306;2022-11-15T00:32:23;101613.72;;;3.87;100.00
41250;BME280;26984;59.928;30.306;2022-11-15T00:35:10;101616.38;;;3.87;100.00
41250;BME280;26984;59.928;30.306;2022-11-15T00:37:57;101603.06;;;3.87;100.00
41250;BME280;26984;59.928;30.306;2022-11-15T00:40:43;101604.06;;;3.86;100.00
41250;BME280;26984;59.928;30.306;2022-11-15T00:43:29;101591.84;;;3.83;100.00
41250;BME280;26984;59.928;30.306;2022-11-15T00:46:16;101591.03;;;3.83;100.00
41250;BME280;26984;59.928;30.306;2022-11-15T00:49:02;101584.69;;;3.84;100.00
41250;BME280;26984;59.928;30.306;2022-11-15T00:51:49;101572.38;;;3.83;100.00
41250;BME280;26984;59.928;30.306;2022-11-15T00:54:35;101562.00;;;3.80;100.00
41250;BME280;26984;59.928;30.306;2022-11-15T00:57:22;101555.16;;;3.77;100.00
41250;BME280;26984;59.928;30.306;2022-11-15T01:00:08;101527.47;;;3.60;100.00
41250;BME280;26984;59.928;30.306;2022-11-15T01:02:55;101547.34;;;3.66;100.00
41250;BME280;26984;59.928;30.306;2022-11-15T01:05:42;101547.22;;;3.68;100.00
41250;BME280;26984;59.928;30.306;2022-11-15T01:08:29;101532.75;;;3.70;100.00
41250;BME280;26984;59.928;30.306;2022-11-15T01:11:15;101533.47;;;3.63;100.00
41250;BME280;26984;59.928;30.306;2022-11-15T01:14:01;101530.28;;;3.59;100.00
41250;BME280;26984;59.928;30.306;2022-11-15T01:16:47;101520.63;;;3.58;100.00
41250;BME280;26984;59.928;30.306;2022-11-15T01:19:34;101523.28;;;3.58;100.00
41250;BME280;26984;59.928;30.306;2022-11-15T01:22:20;101511.41;;;3.52;100.00
41250;BME280;26984;59.928;30.306;2022-11-15T01:25:08;101499.88;;;3.52;100.00
41250;BME280;26984;59.928;30.306;2022-11-15T01:27:54;101491.50;;;3.47;100.00
41250;BME280;26984;59.928;30.306;2022-11-15T01:30:40;101497.84;;;3.46;100.00
41250;BME280;26984;59.928;30.306;2022-11-15T01:33:28;101500.22;;;3.49;100.00
41250;BME280;26984;59.928;30.306;2022-11-15T01:36:15;101488.47;;;3.42;100.00
41250;BME280;26984;59.928;30.306;2022-11-15T01:39:02;101493.09;;;3.40;100.00
41250;BME280;26984;59.928;30.306;2022-11-15T01:41:50;101493.25;;;3.38;100.00
41250;BME280;26984;59.928;30.306;2022-11-15T01:44:41;101483.44;;;3.39;100.00
41250;BME280;26984;59.928;30.306;2022-11-15T01:47:30;101480.06;;;3.36;100.00
41250;BME280;26984;59.928;30.306;2022-11-15T01:50:19;101476.28;;;3.39;100.00
41250;BME280;26984;59.928;30.306;2022-11-15T01:53:07;101458.63;;;3.38;100.00
41250;BME280;26984;59.928;30.306;2022-11-15T01:55:55;101462.13;;;3.39;100.00
41250;BME280;26984;59.928;30.306;2022-11-15T01:58:44;101458.84;;;3.45;100.00
41250;BME280;26984;59.928;30.306;2022-11-15T02:01:32;101455.50;;;3.43;100.00
41250;BME280;26984;59.928;30.306;2022-11-15T02:04:22;101440.91;;;3.47;100.00
41250;BME280;26984;59.928;30.306;2022-11-15T02:07:12;101430.47;;;3.53;100.00
41250;BME280;26984;59.928;30.306;2022-11-15T02:10:02;101425.28;;;3.52;100.00
41250;BME280;26984;59.928;30.306;2022-11-15T02:12:50;101406.50;;;3.53;100.00
41250;BME280;26984;59.928;30.306;2022-11-15T02:15:46;101413.56;;;3.63;100.00
41250;BME280;26984;59.928;30.306;2022-11-15T02:18:41;101397.59;;;3.63;100.00
41250;BME280;26984;59.928;30.306;2022-11-15T02:21:33;101390.59;;;3.62;100.00
41250;BME280;26984;59.928;30.306;2022-11-15T02:24:54;101383.88;;;3.75;100.00
41250;BME280;26984;59.928;30.306;2022-11-15T02:28:06;101388.91;;;3.78;100.00
41250;BME280;26984;59.928;30.306;2022-11-15T02:31:03;101384.19;;;3.72;100.00
41250;BME280;26984;59.928;30.306;2022-11-15T02:33:55;101378.31;;;3.69;100.00
41250;BME280;26984;59.928;30.306;2022-11-15T02:36:49;101377.56;;;3.76;100.00
41250;BME280;26984;59.928;30.306;2022-11-15T02:39:48;101372.91;;;3.78;100.00
41250;BME280;26984;59.928;30.306;2022-11-15T02:42:41;101367.72;;;3.77;100.00
41250;BME280;26984;59.928;30.306;2022-11-15T02:45:48;101360.94;;;4.00;100.00
41250;BME280;26984;59.928;30.306;2022-11-15T02:48:37;101361.56;;;3.76;100.00
41250;BME280;26984;59.928;30.306;2022-11-15T02:51:25;101355.88;;;3.71;100.00
41250;BME280;26984;59.928;30.306;2022-11-15T02:54:12;101341.84;;;3.69;100.00
41250;BME280;26984;59.928;30.306;2022-11-15T02:57:01;101299.19;;;3.43;100.00
41250;BME280;26984;59.928;30.306;2022-11-15T02:59:59;101337.28;;;3.79;100.00
41250;BME280;26984;59.928;30.306;2022-11-15T03:02:58;101336.59;;;3.77;100.00
41250;BME280;26984;59.928;30.306;2022-11-15T03:05:56;101333.56;;;3.72;100.00
41250;BME280;26984;59.928;30.306;2022-11-15T03:08:56;101324.19;;;3.68;100.00
41250;BME280;26984;59.928;30.306;2022-11-15T03:11:48;101317.50;;;3.64;100.00
41250;BME280;26984;59.928;30.306;2022-11-15T03:14:40;101314.00;;;3.64;100.00
41250;BME280;26984;59.928;30.306;2022-11-15T03:17:34;101312.47;;;3.61;100.00
41250;BME280;26984;59.928;30.306;2022-11-15T03:20:23;101310.94;;;3.58;100.00
41250;BME280;26984;59.928;30.306;2022-11-15T03:23:12;101306.50;;;3.85;100.00
41250;BME280;26984;59.928;30.306;2022-11-15T03:26:00;101294.13;;;3.58;100.00
41250;BME280;26984;59.928;30.306;2022-11-15T03:28:50;101289.84;;;3.65;100.00
41250;BME280;26984;59.928;30.306;2022-11-15T03:31:42;101287.38;;;3.64;100.00
41250;BME280;26984;59.928;30.306;2022-11-15T03:34:37;101263.69;;;3.60;100.00
41250;BME280;26984;59.928;30.306;2022-11-15T03:37:30;101283.91;;;3.71;100.00
41250;BME280;26984;59.928;30.306;2022-11-15T03:40:23;101276.75;;;3.72;100.00
41250;BME280;26984;59.928;30.306;2022-11-15T03:43:15;101276.81;;;3.80;100.00
41250;BME280;26984;59.928;30.306;2022-11-15T03:46:10;101270.81;;;3.78;100.00
41250;BME280;26984;59.928;30.306;2022-11-15T03:49:03;101273.00;;;3.82;100.00
41250;BME280;26984;59.928;30.306;2022-11-15T03:51:51;101266.78;;;3.74;100.00
41250;BME280;26984;59.928;30.306;2022-11-15T03:54:48;101268.19;;;3.86;100.00
41250;BME280;26984;59.928;30.306;2022-11-15T03:57:36;101265.94;;;3.73;100.00
41250;BME280;26984;59.928;30.306;2022-11-15T04:00:22;101264.25;;;3.72;100.00
41250;BME280;26984;59.928;30.306;2022-11-15T04:03:08;101260.94;;;3.70;100.00
41250;BME280;26984;59.928;30.306;2022-11-15T04:05:55;101264.03;;;3.66;100.00
41250;BME280;26984;59.928;30.306;2022-11-15T04:08:41;101257.75;;;3.67;100.00
41250;BME280;26984;59.928;30.306;2022-11-15T04:11:27;101261.25;;;3.67;100.00
41250;BME280;26984;59.928;30.306;2022-11-15T04:14:15;101258.78;;;3.74;100.00
41250;BME280;26984;59.928;30.306;2022-11-15T04:17:02;101227.38;;;3.59;100.00
41250;BME280;26984;59.928;30.306;2022-11-15T04:19:48;101258.00;;;3.81;100.00
41250;BME280;26984;59.928;30.306;2022-11-15T04:22:52;101253.34;;;3.83;100.00
41250;BME280;26984;59.928;30.306;2022-11-15T04:25:59;101240.84;;;3.84;100.00
41250;BME280;26984;59.928;30.306;2022-11-15T04:28:46;101243.50;;;3.84;100.00
41250;BME280;26984;59.928;30.306;2022-11-15T04:31:47;101245.34;;;3.83;100.00
41250;BME280;26984;59.928;30.306;2022-11-15T04:34:33;101234.47;;;3.77;100.00
41250;BME280;26984;59.928;30.306;2022-11-15T04:37:20;101235.78;;;3.73;100.00
41250;BME280;26984;59.928;30.306;2022-11-15T04:40:07;101221.31;;;3.75;100.00
41250;BME280;26984;59.928;30.306;2022-11-15T04:42:53;101227.00;;;3.80;100.00
41250;BME280;26984;59.928;30.306;2022-11-15T04:45:40;101225.03;;;3.82;100.00
41250;BME280;26984;59.928;30.306;2022-11-15T04:48:27;101224.72;;;3.86;100.00
41250;BME280;26984;59.928;30.306;2022-11-15T04:51:14;101218.06;;;3.90;100.00
41250;BME280;26984;59.928;30.306;2022-11-15T04:54:01;101215.91;;;3.93;100.00
41250;BME280;26984;59.928;30.306;2022-11-15T04:56:47;101209.28;;;3.97;100.00
41250;BME280;26984;59.928;30.306;2022-11-15T04:59:33;101215.94;;;4.01;100.00
41250;BME280;26984;59.928;30.306;2022-11-15T05:02:19;101208.78;;;4.02;100.00
41250;BME280;26984;59.928;30.306;2022-11-15T05:05:08;101210.31;;;4.04;100.00
41250;BME280;26984;59.928;30.306;2022-11-15T05:07:53;101209.47;;;4.04;100.00
41250;BME280;26984;59.928;30.306;2022-11-15T05:10:39;101208.13;;;4.00;100.00
41250;BME280;26984;59.928;30.306;2022-11-15T05:13:26;101206.13;;;4.02;100.00
41250;BME280;26984;59.928;30.306;2022-11-15T05:16:13;101195.94;;;3.97;100.00
41250;BME280;26984;59.928;30.306;2022-11-15T05:19:02;101211.97;;;4.05;100.00
41250;BME280;26984;59.928;30.306;2022-11-15T05:21:52;101204.66;;;4.07;100.00
41250;BME280;26984;59.928;30.306;2022-11-15T05:24:40;101202.31;;;4.47;100.00
41250;BME280;26984;59.928;30.306;2022-11-15T05:27:26;101201.16;;;4.07;100.00
41250;BME280;26984;59.928;30.306;2022-11-15T05:30:17;101204.97;;;4.04;100.00
41250;BME280;26984;59.928;30.306;2022-11-15T05:33:18;101200.28;;;3.98;100.00
41250;BME280;26984;59.928;30.306;2022-11-15T05:36:09;101199.94;;;4.01;100.00
41250;BME280;26984;59.928;30.306;2022-11-15T05:39:06;101203.00;;;4.06;100.00
41250;BME280;26984;59.928;30.306;2022-11-15T05:41:55;101191.31;;;4.07;100.00
41250;BME280;26984;59.928;30.306;2022-11-15T05:44:48;101196.66;;;4.07;100.00
41250;BME280;26984;59.928;30.306;2022-11-15T05:47:34;101193.47;;;4.46;100.00
41250;BME280;26984;59.928;30.306;2022-11-15T05:50:22;101184.53;;;4.13;100.00
41250;BME280;26984;59.928;30.306;2022-11-15T05:53:10;101195.34;;;4.12;100.00
41250;BME280;26984;59.928;30.306;2022-11-15T05:56:09;101192.88;;;4.18;100.00
41250;BME280;26984;59.928;30.306;2022-11-15T05:58:58;101196.84;;;4.06;100.00
41250;BME280;26984;59.928;30.306;2022-11-15T06:01:45;101191.81;;;4.03;100.00
41250;BME280;26984;59.928;30.306;2022-11-15T06:04:31;101191.19;;;4.17;100.00
41250;BME280;26984;59.928;30.306;2022-11-15T06:07:18;101195.22;;;4.21;100.00
41250;BME280;26984;59.928;30.306;2022-11-15T06:10:05;101197.72;;;4.23;100.00
41250;BME280;26984;59.928;30.306;2022-11-15T06:12:57;101199.75;;;4.37;100.00
41250;BME280;26984;59.928;30.306;2022-11-15T06:15:43;101195.41;;;4.28;100.00
41250;BME280;26984;59.928;30.306;2022-11-15T06:18:32;101185.88;;;4.25;100.00
41250;BME280;26984;59.928;30.306;2022-11-15T06:21:19;101198.41;;;4.33;100.00
41250;BME280;26984;59.928;30.306;2022-11-15T06:24:06;101198.09;;;4.36;100.00
41250;BME280;26984;59.928;30.306;2022-11-15T06:26:52;101198.72;;;4.30;100.00
41250;BME280;26984;59.928;30.306;2022-11-15T06:29:40;101193.56;;;4.28;100.00
41250;BME280;26984;59.928;30.306;2022-11-15T06:32:26;101196.06;;;4.30;100.00
41250;BME280;26984;59.928;30.306;2022-11-15T06:35:13;101194.78;;;4.34;100.00
41250;BME280;26984;59.928;30.306;2022-11-15T06:38:03;101191.75;;;4.37;100.00
41250;BME280;26984;59.928;30.306;2022-11-15T06:40:49;101202.28;;;4.39;100.00
41250;BME280;26984;59.928;30.306;2022-11-15T06:43:36;101203.13;;;4.39;100.00
41250;BME280;26984;59.928;30.306;2022-11-15T06:46:24;101200.63;;;4.38;100.00
41250;BME280;26984;59.928;30.306;2022-11-15T06:49:10;101205.44;;;4.34;100.00
41250;BME280;26984;59.928;30.306;2022-11-15T06:51:56;101203.59;;;4.35;100.00
41250;BME280;26984;59.928;30.306;2022-11-15T06:54:42;101213.47;;;4.42;100.00
41250;BME280;26984;59.928;30.306;2022-11-15T06:57:29;101207.63;;;4.39;100.00
41250;BME280;26984;59.928;30.306;2022-11-15T07:00:17;101201.41;;;4.30;100.00
41250;BME280;26984;59.928;30.306;2022-11-15T07:03:05;101210.59;;;4.36;100.00
41250;BME280;26984;59.928;30.306;2022-11-15T07:05:52;101207.25;;;4.33;100.00
41250;BME280;26984;59.928;30.306;2022-11-15T07:08:39;101202.28;;;4.39;100.00
41250;BME280;26984;59.928;30.306;2022-11-15T07:11:26;101204.94;;;4.39;100.00
41250;BME280;26984;59.928;30.306;2022-11-15T07:14:12;101206.78;;;4.38;100.00
41250;BME280;26984;59.928;30.306;2022-11-15T07:16:58;101211.63;;;4.35;100.00
41250;BME280;26984;59.928;30.306;2022-11-15T07:19:46;101205.09;;;4.37;100.00
41250;BME280;26984;59.928;30.306;2022-11-15T07:22:32;101205.09;;;4.37;100.00
41250;BME280;26984;59.928;30.306;2022-11-15T07:25:18;101214.41;;;4.33;100.00
41250;BME280;26984;59.928;30.306;2022-11-15T07:28:05;101215.41;;;4.24;100.00
41250;BME280;26984;59.928;30.306;2022-11-15T07:30:51;101202.59;;;4.27;100.00
41250;BME280;26984;59.928;30.306;2022-11-15T07:33:37;101212.44;;;4.35;100.00
41250;BME280;26984;59.928;30.306;2022-11-15T07:36:25;101209.59;;;4.37;100.00
41250;BME280;26984;59.928;30.306;2022-11-15T07:39:11;101211.94;;;4.40;100.00
41250;BME280;26984;59.928;30.306;2022-11-15T07:41:59;101213.47;;;4.42;100.00
41250;BME280;26984;59.928;30.306;2022-11-15T07:44:58;101215.25;;;4.92;100.00
41250;BME280;26984;59.928;30.306;2022-11-15T07:47:45;101207.19;;;4.60;100.00
41250;BME280;26984;59.928;30.306;2022-11-15T07:50:31;101216.03;;;4.60;100.00
41250;BME280;26984;59.928;30.306;2022-11-15T07:53:19;101219.50;;;4.52;100.00
41250;BME280;26984;59.928;30.306;2022-11-15T07:56:06;101218.66;;;4.52;100.00
41250;BME280;26984;59.928;30.306;2022-11-15T07:58:52;101218.19;;;4.56;100.00
41250;BME280;26984;59.928;30.306;2022-11-15T08:01:38;101202.16;;;4.56;100.00
41250;BME280;26984;59.928;30.306;2022-11-15T08:04:24;101215.88;;;4.78;100.00
41250;BME280;26984;59.928;30.306;2022-11-15T08:07:10;101221.22;;;4.86;100.00
41250;BME280;26984;59.928;30.306;2022-11-15T08:09:58;101211.25;;;4.96;100.00
41250;BME280;26984;59.928;30.306;2022-11-15T08:12:45;101219.94;;;5.07;100.00
41250;BME280;26984;59.928;30.306;2022-11-15T08:15:32;101225.25;;;5.15;100.00
41250;BME280;26984;59.928;30.306;2022-11-15T08:18:19;101227.44;;;5.27;100.00
41250;BME280;26984;59.928;30.306;2022-11-15T08:21:05;101220.59;;;5.33;100.00
41250;BME280;26984;59.928;30.306;2022-11-15T08:23:52;101233.94;;;5.33;100.00
41250;BME280;26984;59.928;30.306;2022-11-15T08:26:39;101227.78;;;5.49;100.00
41250;BME280;26984;59.928;30.306;2022-11-15T08:29:26;101233.13;;;5.49;100.00
41250;BME280;26984;59.928;30.306;2022-11-15T08:32:12;101230.09;;;5.60;100.00
41250;BME280;26984;59.928;30.306;2022-11-15T08:34:58;101232.44;;;5.63;100.00
41250;BME280;26984;59.928;30.306;2022-11-15T08:37:45;101231.91;;;5.68;100.00
41250;BME280;26984;59.928;30.306;2022-11-15T08:40:31;101231.91;;;5.68;100.00
41250;BME280;26984;59.928;30.306;2022-11-15T08:43:19;101226.72;;;5.74;100.00
41250;BME280;26984;59.928;30.306;2022-11-15T08:46:05;101233.91;;;5.82;100.00
41250;BME280;26984;59.928;30.306;2022-11-15T08:48:53;101232.75;;;5.76;100.00
41250;BME280;26984;59.928;30.306;2022-11-15T08:51:40;101233.41;;;5.79;100.00
41250;BME280;26984;59.928;30.306;2022-11-15T08:54:26;101237.13;;;5.69;100.00
41250;BME280;26984;59.928;30.306;2022-11-15T08:57:12;101247.44;;;5.72;100.00
41250;BME280;26984;59.928;30.306;2022-11-15T09:00:00;101239.44;;;5.81;100.00
41250;BME280;26984;59.928;30.306;2022-11-15T09:02:46;101244.28;;;5.77;100.00
41250;BME280;26984;59.928;30.306;2022-11-15T09:05:35;101249.59;;;5.93;100.00
41250;BME280;26984;59.928;30.306;2022-11-15T09:08:21;101247.94;;;5.84;100.00
41250;BME280;26984;59.928;30.306;2022-11-15T09:11:09;101244.78;;;5.72;100.00
41250;BME280;26984;59.928;30.306;2022-11-15T09:13:56;101243.28;;;5.70;100.00
41250;BME280;26984;59.928;30.306;2022-11-15T09:16:43;101246.13;;;5.68;100.00
41250;BME280;26984;59.928;30.306;2022-11-15T09:19:30;101242.09;;;5.72;100.00
41250;BME280;26984;59.928;30.306;2022-11-15T09:22:16;101245.44;;;5.74;100.00
41250;BME280;26984;59.928;30.306;2022-11-15T09:25:03;101240.06;;;5.83;100.00
41250;BME280;26984;59.928;30.306;2022-11-15T09:27:49;101237.41;;;5.91;100.00
41250;BME280;26984;59.928;30.306;2022-11-15T09:30:35;101247.94;;;5.92;100.00
41250;BME280;26984;59.928;30.306;2022-11-15T09:33:23;101244.25;;;5.93;100.00
41250;BME280;26984;59.928;30.306;2022-11-15T09:36:10;101231.56;;;5.95;100.00
41250;BME280;26984;59.928;30.306;2022-11-15T09:38:57;101242.56;;;6.00;100.00
41250;BME280;26984;59.928;30.306;2022-11-15T09:41:58;101246.88;;;6.18;100.00
41250;BME280;26984;59.928;30.306;2022-11-15T09:44:58;101242.22;;;6.04;100.00
41250;BME280;26984;59.928;30.306;2022-11-15T09:51:22;101256.28;;;6.06;100.00
41250;BME280;26984;59.928;30.306;2022-11-15T09:54:05;101251.44;;;5.93;100.00
41250;BME280;26984;59.928;30.306;2022-11-15T09:56:41;101253.44;;;5.91;100.00
41250;BME280;26984;59.928;30.306;2022-11-15T09:59:28;101251.09;;;6.04;100.00
41250;BME280;26984;59.928;30.306;2022-11-15T10:02:09;101257.25;;;6.05;100.00
41250;BME280;26984;59.928;30.306;2022-11-15T10:04:38;101244.44;;;5.84;100.00
41250;BME280;26984;59.928;30.306;2022-11-15T10:07:14;101250.59;;;6.00;100.00
41250;BME280;26984;59.928;30.306;2022-11-15T10:09:49;101259.47;;;5.85;100.00
41250;BME280;26984;59.928;30.306;2022-11-15T10:12:19;101259.13;;;5.80;100.00
41250;BME280;26984;59.928;30.306;2022-11-15T10:14:50;101271.81;;;5.86;100.00
41250;BME280;26984;59.928;30.306;2022-11-15T10:17:50;101266.94;;;6.14;100.00
41250;BME280;26984;59.928;30.306;2022-11-15T10:20:24;101268.84;;;5.81;100.00
41250;BME280;26984;59.928;30.306;2022-11-15T10:22:56;101263.47;;;5.89;100.00
41250;BME280;26984;59.928;30.306;2022-11-15T10:25:27;101270.69;;;5.80;100.00
41250;BME280;26984;59.928;30.306;2022-11-15T10:27:57;101232.78;;;5.60;100.00
41250;BME280;26984;59.928;30.306;2022-11-15T10:30:35;101259.47;;;5.85;100.00
41250;BME280;26984;59.928;30.306;2022-11-15T10:33:13;101275.50;;;6.09;100.00
41250;BME280;26984;59.928;30.306;2022-11-15T10:35:44;101284.38;;;6.02;100.00
41250;BME280;26984;59.928;30.306;2022-11-15T10:38:13;101287.53;;;5.97;100.00
41250;BME280;26984;59.928;30.306;2022-11-15T10:40:41;101285.53;;;5.83;100.00
41250;BME280;26984;59.928;30.306;2022-11-15T10:43:17;101292.06;;;5.72;100.00
41250;BME280;26984;59.928;30.306;2022-11-15T10:45:46;101287.38;;;5.17;100.00
41250;BME280;26984;59.928;30.306;2022-11-15T10:48:24;101288.03;;;5.19;100.00
41250;BME280;26984;59.928;30.306;2022-11-15T10:50:53;101294.53;;;5.00;100.00
41250;BME280;26984;59.928;30.306;2022-11-15T10:53:32;101292.19;;;4.97;100.00
41250;BME280;26984;59.928;30.306;2022-11-15T10:56:06;101297.13;;;4.75;100.00
41250;BME280;26984;59.928;30.306;2022-11-15T10:58:41;101297.13;;;4.75;100.00
41250;BME280;26984;59.928;30.306;2022-11-15T11:01:11;101302.44;;;4.67;100.00
41250;BME280;26984;59.928;30.306;2022-11-15T11:03:40;101318.09;;;4.62;100.00
41250;BME280;26984;59.928;30.306;2022-11-15T11:06:11;101322.38;;;4.55;100.00
41250;BME280;26984;59.928;30.306;2022-11-15T11:08:54;101314.97;;;4.75;100.00
41250;BME280;26984;59.928;30.306;2022-11-15T11:11:22;101323.28;;;4.29;100.00
41250;BME280;26984;59.928;30.306;2022-11-15T11:13:49;101317.38;;;4.18;100.00
41250;BME280;26984;59.928;30.306;2022-11-15T11:16:25;101323.34;;;4.12;100.00
41250;BME280;26984;59.928;30.306;2022-11-15T11:19:05;101323.66;;;4.08;100.00
41250;BME280;26984;59.928;30.306;2022-11-15T11:21:43;101328.22;;;3.98;100.00
41250;BME280;26984;59.928;30.306;2022-11-15T11:24:18;101331.59;;;4.26;100.00
41250;BME280;26984;59.928;30.306;2022-11-15T11:27:12;101331.44;;;4.02;100.00
41250;BME280;26984;59.928;30.306;2022-11-15T11:29:59;101317.03;;;3.95;100.00
41250;BME280;26984;59.928;30.306;2022-11-15T11:32:38;101332.16;;;3.86;100.00
41250;BME280;26984;59.928;30.306;2022-11-15T11:35:12;101340.72;;;3.72;100.00
41250;BME280;26984;59.928;30.306;2022-11-15T11:37:46;101341.84;;;3.69;100.00
41250;BME280;26984;59.928;30.306;2022-11-15T11:40:24;101343.56;;;3.52;100.00
41250;BME280;26984;59.928;30.306;2022-11-15T11:42:59;101339.50;;;3.48;100.00
41250;BME280;26984;59.928;30.306;2022-11-15T11:45:53;101339.66;;;3.47;100.00
41250;BME280;26984;59.928;30.306;2022-11-15T11:48:41;101340.50;;;3.47;100.00
41250;BME280;26984;59.928;30.306;2022-11-15T11:51:13;101342.03;;;3.32;100.00
41250;BME280;26984;59.928;30.306;2022-11-15T11:53:48;101343.69;;;3.33;100.00
41250;BME280;26984;59.928;30.306;2022-11-15T11:56:26;101342.56;;;3.35;100.00
41250;BME280;26984;59.928;30.306;2022-11-15T11:59:00;101343.88;;;3.49;100.00
41250;BME280;26984;59.928;30.306;2022-11-15T12:01:33;101348.72;;;3.54;100.00
41250;BME280;26984;59.928;30.306;2022-11-15T12:04:08;101339.97;;;3.44;100.00
41250;BME280;26984;59.928;30.306;2022-11-15T12:06:41;101355.47;;;3.48;100.00
41250;BME280;26984;59.928;30.306;2022-11-15T12:09:17;101361.56;;;3.58;100.00
41250;BME280;26984;59.928;30.306;2022-11-15T12:11:52;101355.56;;;3.74;100.00
41250;BME280;26984;59.928;30.306;2022-11-15T12:14:29;101358.81;;;3.86;100.00
41250;BME280;26984;59.928;30.306;2022-11-15T12:16:59;101358.06;;;3.76;100.00
41250;BME280;26984;59.928;30.306;2022-11-15T12:19:28;101357.84;;;3.69;100.00
41250;BME280;26984;59.928;30.306;2022-11-15T12:22:03;101367.59;;;3.78;100.00
41250;BME280;26984;59.928;30.306;2022-11-15T12:24:36;101362.56;;;3.75;100.00
41250;BME280;26984;59.928;30.306;2022-11-15T12:27:21;101360.47;;;3.87;100.00
41250;BME280;26984;59.928;30.306;2022-11-15T12:29:56;101345.34;;;3.70;100.00
41250;BME280;26984;59.928;30.306;2022-11-15T12:32:28;101360.91;;;3.56;100.00
41250;BME280;26984;59.928;30.306;2022-11-15T12:34:57;101368.81;;;3.48;100.00
41250;BME280;26984;59.928;30.306;2022-11-15T12:40:29;101367.53;;;3.70;100.00
41250;BME280;26984;59.928;30.306;2022-11-15T12:43:07;101373.69;;;3.89;100.00
41250;BME280;26984;59.928;30.306;2022-11-15T12:45:53;101367.34;;;3.90;100.00
41250;BME280;26984;59.928;30.306;2022-11-15T12:58:26;101370.19;;;4.14;100.00
41250;BME280;26984;59.928;30.306;2022-11-15T13:00:54;101376.44;;;4.05;100.00
41250;BME280;26984;59.928;30.306;2022-11-15T13:03:27;101384.13;;;4.08;100.00
41250;BME280;26984;59.928;30.306;2022-11-15T13:08:52;101382.25;;;4.26;100.00
41250;BME280;26984;59.928;30.306;2022-11-15T13:11:49;101383.06;;;4.45;100.00
41250;BME280;26984;59.928;30.306;2022-11-15T13:14:47;101385.78;;;4.53;100.00
41250;BME280;26984;59.928;30.306;2022-11-15T13:17:36;101382.16;;;4.36;100.00
41250;BME280;26984;59.928;30.306;2022-11-15T13:20:19;101388.34;;;4.11;100.00
41250;BME280;26984;59.928;30.306;2022-11-15T13:22:49;101397.50;;;3.72;100.00
41250;BME280;26984;59.928;30.306;2022-11-15T13:28:26;101394.56;;;3.57;100.00
41250;BME280;26984;59.928;30.306;2022-11-15T13:30:58;101412.72;;;3.44;100.00
41250;BME280;26984;59.928;30.306;2022-11-15T13:33:30;101413.44;;;3.46;100.00
41250;BME280;26984;59.928;30.306;2022-11-15T13:36:01;101401.47;;;3.32;100.00
41250;BME280;26984;59.928;30.306;2022-11-15T13:38:31;101420.16;;;3.23;100.00
41250;BME280;26984;59.928;30.306;2022-11-15T13:41:10;101400.06;;;3.10;100.00
41250;BME280;26984;59.928;30.306;2022-11-15T13:43:39;101414.19;;;3.11;100.00
41250;BME280;26984;59.928;30.306;2022-11-15T13:46:11;101417.94;;;3.18;100.00
41250;BME280;26984;59.928;30.306;2022-11-15T13:48:41;101392.09;;;3.01;100.00
41250;BME280;26984;59.928;30.306;2022-11-15T13:51:15;101432.28;;;3.35;100.00
41250;BME280;26984;59.928;30.306;2022-11-15T13:53:46;101432.41;;;3.33;100.00
41250;BME280;26984;59.928;30.306;2022-11-15T13:56:17;101420.56;;;3.28;100.00
41250;BME280;26984;59.928;30.306;2022-11-15T13:58:46;101434.50;;;3.40;100.00
41250;BME280;26984;59.928;30.306;2022-11-15T14:01:18;101420.09;;;3.32;100.00
41250;BME280;26984;59.928;30.306;2022-11-15T14:03:50;101419.56;;;3.29;100.00
41250;BME280;26984;59.928;30.306;2022-11-15T14:06:21;101418.97;;;3.35;100.00
41250;BME280;26984;59.928;30.306;2022-11-15T14:09:14;101442.56;;;3.48;100.00
41250;BME280;26984;59.928;30.306;2022-11-15T14:11:50;101442.72;;;3.46;100.00
41250;BME280;26984;59.928;30.306;2022-11-15T14:14:20;101446.22;;;3.47;100.00
41250;BME280;26984;59.928;30.306;2022-11-15T14:16:51;101439.13;;;3.38;100.00
41250;BME280;26984;59.928;30.306;2022-11-15T14:19:38;101456.81;;;3.56;100.00
41250;BME280;26984;59.928;30.306;2022-11-15T14:22:14;101450.00;;;3.44;100.00
41250;BME280;26984;59.928;30.306;2022-11-15T14:24:47;101458.63;;;3.38;100.00
41250;BME280;26984;59.928;30.306;2022-11-15T14:27:30;101452.97;;;3.41;100.00
41250;BME280;26984;59.928;30.306;2022-11-15T14:29:59;101444.22;;;3.31;100.00
41250;BME280;26984;59.928;30.306;2022-11-15T14:32:39;101470.28;;;3.55;100.00